createdAt,value
2018-05-14T00:02:22.702Z,67.31
2018-05-14T00:04:51.026Z,67.45
2018-05-14T00:07:19.515Z,67.87
2018-05-14T00:09:47.895Z,67.83
2018-05-14T00:12:16.320Z,68.03
2018-05-14T00:14:44.651Z,68.98
2018-05-14T00:17:12.980Z,67.92
2018-05-14T00:19:41.364Z,67.84
2018-05-14T00:22:09.768Z,69.26
2018-05-14T00:24:38.088Z,68.42
2018-05-14T00:27:06.407Z,67.92
2018-05-14T00:29:34.725Z,67.92
2018-05-14T00:32:03.120Z,67.33
2018-05-14T00:34:31.442Z,67.32
2018-05-14T00:36:59.771Z,68.40
2018-05-14T00:39:28.112Z,67.88
2018-05-14T00:41:56.447Z,68.23
2018-05-14T00:44:24.768Z,67.55
2018-05-14T00:46:53.540Z,69.18
2018-05-14T00:49:21.897Z,68.93
2018-05-14T00:51:50.279Z,68.82
2018-05-14T00:54:18.661Z,67.90
2018-05-14T00:56:46.977Z,68.26
2018-05-14T00:59:15.387Z,69.01
2018-05-14T01:01:43.691Z,68.89
2018-05-14T01:04:12.035Z,69.17
2018-05-14T01:06:40.591Z,69.31
2018-05-14T01:09:09.018Z,70.05
2018-05-14T01:11:37.364Z,69.66
2018-05-14T01:14:05.680Z,69.96
2018-05-14T01:16:34.044Z,70.41
2018-05-14T01:19:02.382Z,69.42
2018-05-14T01:21:30.711Z,70.29
2018-05-14T01:23:59.061Z,70.56
2018-05-14T01:26:27.575Z,70.48
2018-05-14T01:29:09.009Z,71.35
2018-05-14T01:31:39.593Z,70.73
2018-05-14T01:34:08.043Z,70.76
2018-05-14T01:36:36.376Z,71.13
2018-05-14T01:39:04.801Z,71.50
2018-05-14T01:41:33.120Z,71.83
2018-05-14T01:44:01.457Z,71.50
2018-05-14T01:46:39.791Z,71.60
2018-05-14T01:49:10.331Z,71.80
2018-05-14T01:51:38.647Z,71.86
2018-05-14T01:54:07.038Z,72.32
2018-05-14T01:56:35.367Z,71.81
2018-05-14T01:59:03.695Z,71.85
2018-05-14T02:01:32.203Z,72.32
2018-05-14T02:04:00.538Z,72.31
2018-05-14T02:06:28.982Z,72.40
2018-05-14T02:08:57.325Z,72.36
2018-05-14T02:11:25.680Z,72.84
2018-05-14T02:13:54.052Z,72.65
2018-05-14T02:16:22.371Z,72.67
2018-05-14T02:18:50.718Z,73.42
2018-05-14T02:21:19.241Z,73.28
2018-05-14T02:23:48.036Z,73.47
2018-05-14T02:26:16.362Z,73.75
2018-05-14T02:31:23.749Z,72.55
2018-05-14T02:33:52.082Z,72.27
2018-05-14T02:36:20.411Z,72.60
2018-05-14T02:38:48.745Z,73.44
2018-05-14T02:41:18.198Z,73.24
2018-05-14T02:43:46.543Z,73.71
2018-05-14T02:46:14.927Z,73.76
2018-05-14T02:48:43.269Z,73.58
2018-05-14T02:51:11.587Z,74.92
2018-05-14T02:53:39.930Z,74.89
2018-05-14T02:56:08.422Z,75.19
2018-05-14T02:58:36.753Z,73.94
2018-05-14T03:01:05.081Z,75.93
2018-05-14T03:03:33.555Z,75.44
2018-05-14T03:06:01.930Z,75.94
2018-05-14T03:08:30.256Z,75.82
2018-05-14T03:10:58.607Z,75.53
2018-05-14T03:13:26.920Z,75.52
2018-05-14T03:15:55.259Z,75.94
2018-05-14T03:18:23.597Z,75.45
2018-05-14T03:20:52.625Z,76.57
2018-05-14T03:23:21.188Z,76.39
2018-05-14T03:25:49.775Z,76.43
2018-05-14T03:28:18.105Z,76.74
2018-05-14T03:30:48.217Z,76.60
2018-05-14T03:33:16.569Z,76.27
2018-05-14T03:35:44.894Z,76.23
2018-05-14T03:38:13.527Z,76.36
2018-05-14T03:40:41.896Z,76.26
2018-05-14T03:43:10.552Z,76.41
2018-05-14T03:45:38.892Z,77.16
2018-05-14T03:48:07.264Z,76.47
2018-05-14T03:50:36.427Z,76.87
2018-05-14T03:53:04.752Z,77.00
2018-05-14T03:55:33.059Z,76.42
2018-05-14T03:58:01.364Z,77.08
2018-05-14T04:00:41.711Z,76.71
2018-05-14T04:03:21.989Z,77.00
2018-05-14T04:06:02.382Z,76.42
2018-05-14T04:08:30.771Z,76.95
2018-05-14T04:10:59.234Z,77.06
2018-05-14T04:13:27.668Z,77.50
2018-05-14T04:15:56.046Z,77.28
2018-05-14T04:18:24.387Z,77.05
2018-05-14T04:20:52.709Z,76.77
2018-05-14T04:23:21.140Z,76.08
2018-05-14T04:25:49.488Z,75.49
2018-05-14T04:28:17.830Z,75.16
2018-05-14T04:30:46.242Z,75.08
2018-05-14T04:33:14.585Z,75.59
2018-05-14T04:35:42.887Z,74.73
2018-05-14T04:38:11.228Z,74.98
2018-05-14T04:40:39.674Z,73.38
2018-05-14T04:43:08.024Z,73.24
2018-05-14T04:45:36.457Z,72.89
2018-05-14T04:48:04.847Z,72.52
2018-05-14T04:50:33.219Z,72.58
2018-05-14T04:53:01.629Z,71.93
2018-05-14T04:55:30.036Z,71.96
2018-05-14T04:57:58.375Z,70.85
2018-05-14T05:00:26.690Z,70.63
2018-05-14T05:02:55.899Z,69.81
2018-05-14T05:05:24.237Z,71.10
2018-05-14T05:07:52.603Z,69.01
2018-05-14T05:10:20.967Z,68.69
2018-05-14T05:12:49.305Z,67.02
2018-05-14T05:15:17.669Z,67.06
2018-05-14T05:17:46.075Z,66.69
2018-05-14T05:20:14.451Z,66.39
2018-05-14T05:22:42.799Z,65.68
2018-05-14T05:25:11.170Z,66.79
2018-05-14T05:27:39.555Z,66.74
2018-05-14T05:30:07.884Z,65.79
2018-05-14T05:32:36.216Z,65.54
2018-05-14T05:35:04.548Z,65.97
2018-05-14T05:37:32.872Z,65.54
2018-05-14T05:40:01.209Z,64.96
2018-05-14T05:42:29.610Z,64.54
2018-05-14T05:44:57.934Z,64.39
2018-05-14T05:47:26.267Z,64.08
2018-05-14T05:49:54.647Z,62.53
2018-05-14T05:52:22.996Z,59.49
2018-05-14T05:54:51.315Z,55.51
2018-05-14T05:57:19.743Z,50.24
2018-05-14T05:59:48.085Z,46.86
2018-05-14T06:02:16.538Z,45.37
2018-05-14T06:04:44.876Z,42.60
2018-05-14T06:07:13.214Z,41.10
2018-05-14T06:09:41.595Z,38.93
2018-05-14T06:12:09.942Z,37.28
2018-05-14T06:14:38.276Z,36.78
2018-05-14T06:17:06.668Z,36.33
2018-05-14T06:19:35.063Z,37.29
2018-05-14T06:22:03.549Z,37.27
2018-05-14T06:24:31.882Z,36.74
2018-05-14T06:27:00.230Z,36.27
2018-05-14T06:29:28.625Z,37.47
2018-05-14T06:31:56.968Z,38.23
2018-05-14T06:34:25.308Z,36.63
2018-05-14T06:36:53.718Z,36.01
2018-05-14T06:39:22.062Z,36.81
2018-05-14T06:41:50.510Z,35.78
2018-05-14T06:44:18.941Z,35.74
2018-05-14T06:46:47.182Z,35.61
2018-05-14T06:49:15.535Z,35.53
2018-05-14T06:51:43.967Z,33.95
2018-05-14T06:54:12.295Z,31.74
2018-05-14T06:56:40.611Z,31.16
2018-05-14T06:59:09.031Z,32.32
2018-05-14T07:01:37.366Z,32.43
2018-05-14T07:04:05.815Z,32.46
2018-05-14T07:06:34.208Z,32.45
2018-05-14T07:09:02.580Z,32.59
2018-05-14T07:11:31.050Z,31.05
2018-05-14T07:13:59.390Z,30.19
2018-05-14T07:16:27.717Z,30.61
2018-05-14T07:18:56.283Z,30.15
2018-05-14T07:21:24.619Z,30.30
2018-05-14T07:23:53.015Z,32.31
2018-05-14T07:26:21.458Z,32.23
2018-05-14T07:28:49.841Z,30.11
2018-05-14T07:31:18.240Z,30.35
2018-05-14T07:33:46.581Z,28.90
2018-05-14T07:36:15.002Z,30.97
2018-05-14T07:38:43.246Z,32.95
2018-05-14T07:41:11.607Z,32.24
2018-05-14T07:43:40.068Z,32.68
2018-05-14T07:46:13.081Z,31.71
2018-05-14T07:48:41.391Z,31.76
2018-05-14T07:51:10.025Z,30.51
2018-05-14T07:53:38.128Z,30.23
2018-05-14T07:56:06.451Z,30.35
2018-05-14T07:58:34.783Z,31.52
2018-05-14T08:01:03.153Z,30.24
2018-05-14T08:03:31.501Z,29.87
2018-05-14T08:05:59.830Z,31.26
2018-05-14T08:08:28.247Z,32.74
2018-05-14T08:10:56.658Z,32.77
2018-05-14T08:13:24.990Z,33.37
2018-05-14T08:15:53.306Z,32.12
2018-05-14T08:18:21.687Z,32.90
2018-05-14T08:20:50.020Z,33.59
2018-05-14T08:23:18.378Z,34.60
2018-05-14T08:25:46.719Z,34.64
2018-05-14T08:28:15.160Z,36.48
2018-05-14T08:30:43.484Z,36.49
2018-05-14T08:33:11.796Z,35.40
2018-05-14T08:35:40.237Z,36.25
2018-05-14T08:38:08.555Z,34.05
2018-05-14T08:40:36.880Z,34.16
2018-05-14T08:43:05.213Z,34.08
2018-05-14T08:45:33.612Z,35.40
2018-05-14T08:48:01.947Z,32.39
2018-05-14T08:50:30.288Z,33.19
2018-05-14T08:52:58.780Z,35.72
2018-05-14T08:55:27.216Z,33.36
2018-05-14T08:57:55.532Z,31.71
2018-05-14T09:00:23.871Z,31.54
2018-05-14T09:02:52.428Z,29.90
2018-05-14T09:05:20.563Z,30.32
2018-05-14T09:07:48.881Z,29.62
2018-05-14T09:10:17.226Z,28.40
2018-05-14T09:12:45.545Z,28.70
2018-05-14T09:15:13.914Z,29.67
2018-05-14T09:17:42.284Z,29.20
2018-05-14T09:20:10.615Z,28.17
2018-05-14T09:22:38.991Z,27.31
2018-05-14T09:25:07.376Z,26.69
2018-05-14T09:27:35.761Z,27.51
2018-05-14T09:30:04.122Z,28.23
2018-05-14T09:32:32.439Z,29.27
2018-05-14T09:35:00.765Z,27.77
2018-05-14T09:37:29.140Z,27.26
2018-05-14T09:39:57.524Z,27.69
2018-05-14T09:42:25.883Z,28.46
2018-05-14T09:44:54.206Z,28.25
2018-05-14T09:47:22.611Z,26.78
2018-05-14T09:49:50.949Z,27.94
2018-05-14T09:52:19.325Z,28.23
2018-05-14T09:54:47.637Z,28.69
2018-05-14T09:57:16.006Z,29.03
2018-05-14T09:59:44.348Z,29.34
2018-05-14T10:02:12.683Z,28.87
2018-05-14T10:04:41.008Z,28.07
2018-05-14T10:07:09.362Z,28.60
2018-05-14T10:09:37.707Z,28.74
2018-05-14T10:12:06.105Z,27.43
2018-05-14T10:14:34.433Z,26.91
2018-05-14T10:17:02.778Z,27.41
2018-05-14T10:19:31.097Z,28.12
2018-05-14T10:21:59.464Z,26.97
2018-05-14T10:24:27.877Z,28.15
2018-05-14T10:26:56.219Z,28.75
2018-05-14T10:29:24.561Z,26.77
2018-05-14T10:31:52.972Z,28.99
2018-05-14T10:34:21.246Z,27.63
2018-05-14T10:36:49.601Z,27.74
2018-05-14T10:39:17.927Z,28.48
2018-05-14T10:41:46.264Z,28.10
2018-05-14T10:44:14.613Z,29.73
2018-05-14T10:46:43.051Z,28.42
2018-05-14T10:49:11.500Z,27.57
2018-05-14T10:51:39.831Z,29.16
2018-05-14T10:54:08.165Z,26.95
2018-05-14T10:56:36.573Z,25.15
2018-05-14T10:59:04.968Z,24.46
2018-05-14T11:01:33.296Z,25.77
2018-05-14T11:04:01.629Z,24.80
2018-05-14T11:06:29.991Z,23.09
2018-05-14T11:08:58.358Z,23.02
2018-05-14T11:11:26.709Z,24.83
2018-05-14T11:13:55.006Z,24.08
2018-05-14T11:16:23.402Z,23.98
2018-05-14T11:18:51.756Z,23.90
2018-05-14T11:21:20.147Z,24.81
2018-05-14T11:23:48.462Z,26.67
2018-05-14T11:26:16.797Z,26.45
2018-05-14T11:28:45.212Z,25.65
2018-05-14T11:31:13.725Z,26.42
2018-05-14T11:33:42.035Z,24.89
2018-05-14T11:36:10.394Z,26.68
2018-05-14T11:38:38.770Z,24.76
2018-05-14T11:41:07.134Z,25.50
2018-05-14T11:43:35.978Z,24.10
2018-05-14T11:46:04.431Z,24.67
2018-05-14T11:48:32.995Z,24.97
2018-05-14T11:51:01.353Z,25.96
2018-05-14T11:53:29.684Z,25.21
2018-05-14T11:55:58.008Z,24.89
2018-05-14T11:58:26.376Z,24.00
2018-05-14T12:00:54.793Z,23.01
2018-05-14T12:03:23.137Z,23.05
2018-05-14T12:05:51.469Z,24.14
2018-05-14T12:08:19.857Z,24.55
2018-05-14T12:10:48.187Z,24.11
2018-05-14T12:13:16.541Z,24.28
2018-05-14T12:15:44.858Z,23.50
2018-05-14T12:18:13.308Z,22.93
2018-05-14T12:20:41.537Z,23.63
2018-05-14T12:23:09.908Z,22.62
2018-05-14T12:25:38.320Z,22.03
2018-05-14T12:28:06.568Z,21.70
2018-05-14T12:30:34.941Z,21.99
2018-05-14T12:33:03.487Z,22.22
2018-05-14T12:35:31.778Z,22.42
2018-05-14T12:38:00.147Z,22.58
2018-05-14T12:40:28.550Z,23.62
2018-05-14T12:42:56.915Z,23.73
2018-05-14T12:45:25.238Z,23.15
2018-05-14T12:47:53.662Z,23.90
2018-05-14T12:50:22.005Z,21.58
2018-05-14T12:52:50.407Z,22.54
2018-05-14T12:55:18.719Z,21.77
2018-05-14T12:57:47.054Z,22.62
2018-05-14T13:00:15.420Z,23.15
2018-05-14T13:02:43.795Z,23.41
2018-05-14T13:05:12.116Z,22.79
2018-05-14T13:07:40.658Z,23.13
2018-05-14T13:10:09.048Z,23.15
2018-05-14T13:12:37.443Z,24.02
2018-05-14T13:15:05.774Z,25.16
2018-05-14T13:17:34.085Z,24.25
2018-05-14T13:20:02.523Z,24.47
2018-05-14T13:22:30.923Z,24.77
2018-05-14T13:24:59.310Z,23.57
2018-05-14T13:27:27.640Z,25.15
2018-05-14T13:29:56.287Z,26.17
2018-05-14T13:32:24.707Z,26.49
2018-05-14T13:34:53.052Z,25.76
2018-05-14T13:37:21.518Z,25.26
2018-05-14T13:39:49.860Z,25.66
2018-05-14T13:42:18.177Z,25.88
2018-05-14T13:44:46.513Z,26.92
2018-05-14T13:47:15.447Z,26.98
2018-05-14T13:49:43.792Z,26.55
2018-05-14T13:52:12.122Z,26.62
2018-05-14T13:54:40.544Z,26.74
2018-05-14T13:57:08.940Z,28.96
2018-05-14T13:59:37.329Z,28.27
2018-05-14T14:02:05.693Z,28.47
2018-05-14T14:04:34.130Z,29.40
2018-05-14T14:07:02.477Z,29.20
2018-05-14T14:09:30.907Z,28.91
2018-05-14T14:12:00.104Z,29.38
2018-05-14T14:14:28.412Z,28.83
2018-05-14T14:16:56.836Z,27.65
2018-05-14T14:19:25.128Z,28.47
2018-05-14T14:21:53.496Z,28.03
2018-05-14T14:24:22.044Z,28.55
2018-05-14T14:26:50.209Z,27.37
2018-05-14T14:29:18.592Z,27.14
2018-05-14T14:31:46.942Z,27.04
2018-05-14T14:34:15.290Z,27.95
2018-05-14T14:36:43.742Z,28.52
2018-05-14T14:39:12.082Z,28.67
2018-05-14T14:41:40.412Z,29.19
2018-05-14T14:44:08.803Z,28.82
2018-05-14T14:46:37.916Z,29.40
2018-05-14T14:49:06.394Z,27.91
2018-05-14T14:51:34.725Z,28.14
2018-05-14T14:54:03.093Z,28.89
2018-05-14T14:56:31.422Z,27.75
2018-05-14T14:58:59.759Z,29.01
2018-05-14T15:01:28.098Z,28.51
2018-05-14T15:03:56.673Z,29.91
2018-05-14T15:06:25.052Z,29.52
2018-05-14T15:08:53.443Z,29.32
2018-05-14T15:11:21.846Z,28.87
2018-05-14T15:13:50.168Z,28.97
2018-05-14T15:16:18.494Z,30.66
2018-05-14T15:18:46.923Z,29.71
2018-05-14T15:21:16.199Z,30.63
2018-05-14T15:23:44.546Z,30.47
2018-05-14T15:26:12.893Z,30.57
2018-05-14T15:28:41.230Z,30.69
2018-05-14T15:31:09.548Z,30.42
2018-05-14T15:33:38.406Z,30.61
2018-05-14T15:36:06.777Z,31.70
2018-05-14T15:38:35.099Z,30.17
2018-05-14T15:41:03.523Z,30.57
2018-05-14T15:43:32.050Z,30.92
2018-05-14T15:46:00.380Z,32.24
2018-05-14T15:48:28.707Z,31.32
2018-05-14T15:50:59.128Z,32.03
2018-05-14T15:53:27.831Z,32.14
2018-05-14T15:55:56.156Z,32.62
2018-05-14T15:58:24.488Z,33.04
2018-05-14T16:00:52.925Z,33.15
2018-05-14T16:03:21.172Z,33.94
2018-05-14T16:05:53.856Z,34.30
2018-05-14T16:08:22.266Z,33.73
2018-05-14T16:10:51.034Z,34.18
2018-05-14T16:13:19.469Z,33.99
2018-05-14T16:15:47.854Z,32.65
2018-05-14T16:18:16.252Z,33.44
2018-05-14T16:20:44.663Z,32.44
2018-05-14T16:23:12.928Z,33.03
2018-05-14T16:25:41.319Z,33.26
2018-05-14T16:28:09.702Z,33.17
2018-05-14T16:30:38.048Z,33.45
2018-05-14T16:33:06.401Z,33.09
2018-05-14T16:35:34.727Z,33.50
2018-05-14T16:38:03.083Z,34.15
2018-05-14T16:40:31.451Z,34.13
2018-05-14T16:42:59.785Z,35.41
2018-05-14T16:45:28.114Z,34.72
2018-05-14T16:47:56.446Z,34.52
2018-05-14T16:50:24.888Z,35.41
2018-05-14T16:52:53.156Z,36.07
2018-05-14T16:55:21.523Z,36.61
2018-05-14T16:57:50.031Z,36.60
2018-05-14T17:00:18.319Z,37.14
2018-05-14T17:02:46.675Z,37.34
2018-05-14T17:05:15.100Z,37.20
2018-05-14T17:07:43.495Z,38.11
2018-05-14T17:10:11.809Z,38.19
2018-05-14T17:12:40.137Z,38.32
2018-05-14T17:15:08.561Z,38.01
2018-05-14T17:17:36.892Z,38.45
2018-05-14T17:20:05.246Z,39.06
2018-05-14T17:22:33.622Z,39.11
2018-05-14T17:25:02.033Z,39.55
2018-05-14T17:27:30.367Z,39.60
2018-05-14T17:29:58.698Z,39.69
2018-05-14T17:32:27.003Z,40.56
2018-05-14T17:34:55.434Z,39.94
2018-05-14T17:37:23.792Z,40.86
2018-05-14T17:39:52.128Z,40.30
2018-05-14T17:42:20.471Z,40.49
2018-05-14T17:44:49.009Z,40.64
2018-05-14T17:47:17.323Z,41.12
2018-05-14T17:49:45.757Z,40.82
2018-05-14T17:52:14.090Z,40.85
2018-05-14T17:54:42.422Z,42.10
2018-05-14T17:57:10.740Z,41.00
2018-05-14T17:59:39.125Z,41.85
2018-05-14T18:02:07.432Z,41.03
2018-05-14T18:04:35.745Z,41.76
2018-05-14T18:07:04.112Z,41.30
2018-05-14T18:09:32.504Z,41.83
2018-05-14T18:12:00.902Z,41.60
2018-05-14T18:14:29.387Z,41.46
2018-05-14T18:16:57.787Z,41.72
2018-05-14T18:19:26.102Z,41.25
2018-05-14T18:22:00.045Z,42.26
2018-05-14T18:24:28.478Z,41.45
2018-05-14T18:26:56.797Z,41.83
2018-05-14T18:29:31.657Z,42.17
2018-05-14T18:32:04.775Z,42.37
2018-05-14T18:34:39.687Z,41.97
2018-05-14T18:37:08.053Z,42.32
2018-05-14T18:39:36.372Z,41.96
2018-05-14T18:42:04.703Z,42.56
2018-05-14T18:44:33.970Z,41.83
2018-05-14T18:47:02.377Z,42.04
2018-05-14T18:49:30.722Z,41.29
2018-05-14T18:51:59.141Z,41.67
2018-05-14T18:54:27.528Z,41.66
2018-05-14T18:56:55.839Z,41.52
2018-05-14T18:59:24.212Z,41.99
2018-05-14T19:01:52.606Z,42.99
2018-05-14T19:04:21.015Z,43.15
2018-05-14T19:06:49.391Z,42.36
2018-05-14T19:09:17.744Z,42.32
2018-05-14T19:11:50.923Z,42.14
2018-05-14T19:14:19.259Z,42.27
2018-05-14T19:16:53.262Z,42.77
2018-05-14T19:19:21.661Z,42.20
2018-05-14T19:21:49.983Z,42.40
2018-05-14T19:24:18.839Z,43.38
2018-05-14T19:26:47.202Z,44.31
2018-05-14T19:29:21.271Z,43.19
2018-05-14T19:31:49.605Z,43.49
2018-05-14T19:34:23.535Z,43.54
2018-05-14T19:36:51.933Z,43.72
2018-05-14T19:39:25.835Z,43.57
2018-05-14T19:41:54.157Z,43.95
2018-05-14T19:44:22.628Z,44.11
2018-05-14T19:46:50.963Z,44.01
2018-05-14T19:49:19.343Z,43.99
2018-05-14T19:51:47.704Z,44.96
2018-05-14T19:54:16.034Z,45.19
2018-05-14T19:56:44.379Z,46.38
2018-05-14T19:59:12.780Z,45.31
2018-05-14T20:01:41.177Z,46.01
2018-05-14T20:04:09.660Z,46.07
2018-05-14T20:06:37.997Z,47.30
2018-05-14T20:09:06.349Z,47.01
2018-05-14T20:11:34.666Z,46.18
2018-05-14T20:14:03.071Z,46.61
2018-05-14T20:16:31.373Z,47.37
2018-05-14T20:18:59.692Z,46.77
2018-05-14T20:21:28.031Z,47.16
2018-05-14T20:23:56.611Z,47.07
2018-05-14T20:26:24.990Z,47.12
2018-05-14T20:28:53.394Z,47.35
2018-05-14T20:31:21.881Z,47.47
2018-05-14T20:33:50.151Z,48.04
2018-05-14T20:36:18.580Z,47.88
2018-05-14T20:38:46.905Z,48.15
2018-05-14T20:41:15.269Z,47.85
2018-05-14T20:43:43.624Z,48.14
2018-05-14T20:46:12.042Z,49.69
2018-05-14T20:48:40.425Z,49.28
2018-05-14T20:51:08.767Z,48.94
2018-05-14T20:53:37.120Z,49.35
2018-05-14T20:56:05.420Z,49.21
2018-05-14T20:58:33.784Z,48.95
2018-05-14T21:01:02.115Z,49.54
2018-05-14T21:03:30.472Z,49.75
2018-05-14T21:05:58.818Z,50.18
2018-05-14T21:08:27.386Z,51.11
2018-05-14T21:10:56.756Z,49.99
2018-05-14T21:13:25.138Z,50.37
2018-05-14T21:15:53.463Z,50.84
2018-05-14T21:18:21.840Z,51.36
2018-05-14T21:20:50.251Z,50.16
2018-05-14T21:23:18.645Z,51.45
2018-05-14T21:25:46.989Z,51.04
2018-05-14T21:28:15.312Z,51.99
2018-05-14T21:30:43.818Z,52.53
2018-05-14T21:33:12.221Z,52.19
2018-05-14T21:35:40.528Z,53.02
2018-05-14T21:38:14.604Z,52.56
2018-05-14T21:40:43.510Z,53.64
2018-05-14T21:43:12.180Z,53.59
2018-05-14T21:45:40.525Z,52.36
2018-05-14T21:48:08.912Z,52.45
2018-05-14T21:50:37.259Z,52.94
2018-05-14T21:53:12.354Z,53.42
2018-05-14T21:55:40.738Z,53.79
2018-05-14T21:58:09.068Z,53.30
2018-05-14T22:00:37.427Z,53.36
2018-05-14T22:03:05.848Z,53.45
2018-05-14T22:05:34.236Z,53.93
2018-05-14T22:08:02.596Z,54.54
2018-05-14T22:10:30.923Z,54.92
2018-05-14T22:12:59.243Z,55.55
2018-05-14T22:15:27.565Z,56.88
2018-05-14T22:17:56.007Z,58.31
2018-05-14T22:20:24.379Z,58.13
2018-05-14T22:22:52.716Z,58.76
2018-05-14T22:25:21.052Z,59.03
2018-05-14T22:27:49.381Z,58.55
2018-05-14T22:30:17.744Z,59.79
2018-05-14T22:32:46.071Z,60.56
2018-05-14T22:35:14.394Z,60.81
2018-05-14T22:37:42.726Z,60.49
2018-05-14T22:40:11.119Z,60.47
2018-05-14T22:42:39.584Z,60.72
2018-05-14T22:45:07.993Z,60.90
2018-05-14T22:47:36.342Z,61.65
2018-05-14T22:50:04.671Z,61.91
2018-05-14T22:52:33.022Z,61.95
2018-05-14T22:55:01.323Z,63.58
2018-05-14T22:57:29.668Z,63.27
2018-05-14T22:59:57.994Z,62.92
2018-05-14T23:02:26.359Z,63.65
2018-05-14T23:04:54.744Z,63.69
2018-05-14T23:07:23.079Z,64.01
2018-05-14T23:09:51.395Z,64.19
2018-05-14T23:12:19.813Z,63.79
2018-05-14T23:14:48.204Z,64.87
2018-05-14T23:19:55.665Z,65.15
2018-05-14T23:22:43.878Z,64.81
2018-05-14T23:25:12.231Z,64.95
2018-05-14T23:27:40.560Z,64.95
2018-05-14T23:30:09.002Z,65.69
2018-05-14T23:32:37.464Z,65.42
2018-05-14T23:35:05.860Z,65.93
2018-05-14T23:37:34.195Z,65.89
2018-05-14T23:40:02.550Z,65.89
2018-05-14T23:42:30.887Z,66.06
2018-05-14T23:44:59.231Z,65.93
2018-05-14T23:47:27.623Z,65.94
2018-05-14T23:49:55.970Z,65.71
2018-05-14T23:52:24.286Z,66.47
2018-05-14T23:54:52.696Z,65.56
2018-05-14T23:57:21.005Z,65.52
2018-05-14T23:59:49.379Z,65.53
